createdAt,value
2022-11-18T00:00:26.261Z,3.80
2022-11-18T00:02:30.020Z,3.80
2022-11-18T00:04:33.333Z,3.70
2022-11-18T00:06:36.869Z,3.70
2022-11-18T00:08:40.346Z,3.70
2022-11-18T00:10:43.747Z,3.70
2022-11-18T00:13:05.889Z,3.60
2022-11-18T00:15:09.726Z,3.50
2022-11-18T00:17:13.196Z,3.50
2022-11-18T00:19:17.072Z,3.50
2022-11-18T00:21:20.628Z,3.40
2022-11-18T00:23:23.973Z,3.40
2022-11-18T00:25:27.526Z,3.40
2022-11-18T00:27:32.131Z,3.50
2022-11-18T00:29:36.856Z,3.50
2022-11-18T00:31:40.711Z,3.60
2022-11-18T00:33:44.161Z,3.70
2022-11-18T00:35:57.996Z,3.70
2022-11-18T00:38:01.540Z,3.80
2022-11-18T00:40:05.133Z,4.00
2022-11-18T00:42:25.985Z,4.10
2022-11-18T00:44:29.283Z,4.20
2022-11-18T00:46:34.018Z,4.30
2022-11-18T00:48:37.546Z,4.40
2022-11-18T00:50:40.989Z,4.50
2022-11-18T00:52:45.718Z,4.60
2022-11-18T00:54:48.954Z,4.60
2022-11-18T00:56:52.192Z,4.70
2022-11-18T00:58:55.481Z,4.70
2022-11-18T01:00:58.799Z,4.70
2022-11-18T01:03:03.800Z,4.70
2022-11-18T01:05:07.647Z,4.80
2022-11-18T01:07:10.964Z,4.80
2022-11-18T01:09:14.357Z,4.80
2022-11-18T01:11:34.983Z,4.80
2022-11-18T01:13:38.267Z,4.80
2022-11-18T01:15:42.748Z,4.90
2022-11-18T01:17:46.023Z,4.90
2022-11-18T01:19:50.755Z,4.90
2022-11-18T01:21:54.204Z,4.90
2022-11-18T01:23:57.490Z,4.90
2022-11-18T01:26:06.516Z,4.90
2022-11-18T01:28:10.312Z,4.90
2022-11-18T01:30:14.732Z,4.90
2022-11-18T01:32:24.395Z,4.80
2022-11-18T01:34:29.910Z,4.80
2022-11-18T01:36:34.584Z,4.80
2022-11-18T01:38:37.960Z,4.90
2022-11-18T01:40:42.033Z,4.90
2022-11-18T01:42:46.044Z,4.90
2022-11-18T01:45:02.179Z,4.90
2022-11-18T01:47:05.439Z,4.90
2022-11-18T01:49:12.944Z,4.90
2022-11-18T01:51:18.299Z,4.80
2022-11-18T01:53:26.897Z,4.90
2022-11-18T01:55:35.021Z,4.90
2022-11-18T01:57:38.471Z,4.90
2022-11-18T01:59:43.594Z,4.80
2022-11-18T02:01:47.788Z,4.70
2022-11-18T02:03:52.032Z,4.70
2022-11-18T02:05:56.084Z,4.70
2022-11-18T02:08:01.118Z,4.70
2022-11-18T02:10:08.579Z,4.70
2022-11-18T02:12:13.396Z,4.70
2022-11-18T02:14:17.491Z,4.70
2022-11-18T02:16:26.582Z,4.70
2022-11-18T02:18:36.756Z,4.70
2022-11-18T02:20:43.013Z,4.70
2022-11-18T02:23:18.493Z,4.70
2022-11-18T02:25:30.683Z,4.60
2022-11-18T02:28:12.237Z,4.60
2022-11-18T02:30:19.326Z,4.50
2022-11-18T02:32:30.117Z,4.50
2022-11-18T02:34:41.408Z,4.50
2022-11-18T02:36:52.976Z,4.60
2022-11-18T02:39:04.452Z,4.60
2022-11-18T02:41:11.409Z,4.60
2022-11-18T02:43:18.101Z,4.60
2022-11-18T02:45:23.716Z,4.60
2022-11-18T02:47:30.113Z,4.70
2022-11-18T02:49:39.133Z,4.60
2022-11-18T02:51:44.499Z,4.50
2022-11-18T02:53:50.221Z,4.60
2022-11-18T02:55:55.080Z,4.50
2022-11-18T02:57:59.555Z,4.50
2022-11-18T03:00:02.801Z,4.50
2022-11-18T03:02:07.451Z,4.40
2022-11-18T03:04:10.676Z,4.40
2022-11-18T03:06:28.811Z,4.40
2022-11-18T03:08:38.572Z,4.40
2022-11-18T03:10:50.964Z,4.30
2022-11-18T03:13:04.082Z,4.30
2022-11-18T03:15:15.880Z,4.30
2022-11-18T03:17:27.005Z,4.30
2022-11-18T03:19:46.690Z,4.20
2022-11-18T03:21:58.770Z,4.10
2022-11-18T03:24:08.984Z,4.20
2022-11-18T03:26:16.205Z,4.20
2022-11-18T03:28:22.652Z,4.20
2022-11-18T03:30:26.999Z,4.20
2022-11-18T03:32:34.592Z,4.20
2022-11-18T03:34:41.768Z,4.20
2022-11-18T03:36:51.995Z,4.10
2022-11-18T03:39:00.537Z,4.10
2022-11-18T03:41:07.172Z,4.10
2022-11-18T03:43:14.387Z,4.10
2022-11-18T03:45:21.564Z,4.10
2022-11-18T03:47:30.387Z,4.10
2022-11-18T03:49:41.670Z,4.00
2022-11-18T03:51:50.174Z,4.00
2022-11-18T03:53:58.496Z,3.90
2022-11-18T03:56:16.929Z,3.80
2022-11-18T03:58:26.063Z,3.70
2022-11-18T04:00:33.980Z,3.60
2022-11-18T04:02:38.404Z,3.50
2022-11-18T04:04:45.457Z,3.40
2022-11-18T04:06:51.640Z,3.30
2022-11-18T04:08:59.026Z,3.20
2022-11-18T04:11:07.845Z,3.20
2022-11-18T04:13:16.045Z,3.10
2022-11-18T04:15:20.700Z,3.10
2022-11-18T04:17:28.169Z,3.10
2022-11-18T04:19:31.410Z,3.20
2022-11-18T04:21:36.065Z,3.10
2022-11-18T04:23:39.425Z,3.00
2022-11-18T04:25:42.661Z,3.00
2022-11-18T04:27:45.932Z,3.00
2022-11-18T04:29:49.092Z,2.90
2022-11-18T04:31:52.288Z,2.90
2022-11-18T04:33:55.603Z,2.90
2022-11-18T04:35:58.812Z,2.90
2022-11-18T04:38:04.959Z,2.90
2022-11-18T04:40:09.797Z,2.90
2022-11-18T04:42:13.025Z,2.90
2022-11-18T04:44:16.331Z,2.90
2022-11-18T04:46:19.481Z,2.90
2022-11-18T04:48:22.634Z,2.90
2022-11-18T04:50:26.185Z,2.90
2022-11-18T04:52:29.424Z,2.80
2022-11-18T04:54:34.243Z,2.80
2022-11-18T04:56:37.436Z,2.70
2022-11-18T04:58:40.601Z,2.70
2022-11-18T05:00:43.967Z,2.60
2022-11-18T05:02:47.460Z,2.60
2022-11-18T05:04:51.159Z,2.50
2022-11-18T05:06:54.937Z,2.50
2022-11-18T05:08:59.077Z,2.40
2022-11-18T05:11:21.542Z,2.40
2022-11-18T05:13:24.851Z,2.50
2022-11-18T05:15:28.191Z,2.60
2022-11-18T05:17:31.382Z,2.70
2022-11-18T05:19:34.668Z,2.80
2022-11-18T05:21:38.605Z,2.80
2022-11-18T05:23:41.862Z,2.90
2022-11-18T05:25:45.155Z,3.00
2022-11-18T05:27:49.777Z,3.10
2022-11-18T05:29:53.476Z,3.10
2022-11-18T05:31:57.179Z,3.20
2022-11-18T05:34:00.561Z,3.20
2022-11-18T05:36:08.499Z,3.20
2022-11-18T05:38:11.817Z,3.30
2022-11-18T05:40:15.455Z,3.30
2022-11-18T05:42:36.184Z,3.30
2022-11-18T05:44:40.876Z,3.30
2022-11-18T05:46:44.125Z,3.30
2022-11-18T05:48:47.354Z,3.20
2022-11-18T05:50:53.924Z,3.20
2022-11-18T05:52:57.414Z,3.30
2022-11-18T05:55:00.707Z,3.30
2022-11-18T05:57:04.100Z,3.30
2022-11-18T05:59:07.394Z,3.40
2022-11-18T06:01:13.240Z,3.40
2022-11-18T06:03:26.186Z,3.50
2022-11-18T06:05:33.659Z,3.50
2022-11-18T06:07:40.208Z,3.60
2022-11-18T06:09:49.022Z,3.60
2022-11-18T06:11:57.543Z,3.70
2022-11-18T06:14:04.983Z,3.70
2022-11-18T06:16:08.637Z,3.70
2022-11-18T06:18:19.344Z,3.70
2022-11-18T06:20:23.560Z,3.70
2022-11-18T06:22:27.610Z,3.70
2022-11-18T06:24:30.997Z,3.70
2022-11-18T06:26:34.287Z,3.80
2022-11-18T06:28:38.233Z,3.90
2022-11-18T06:30:41.505Z,3.90
2022-11-18T06:32:44.806Z,4.00
2022-11-18T06:34:49.739Z,4.00
2022-11-18T06:37:12.797Z,4.00
2022-11-18T06:39:16.600Z,4.00
2022-11-18T06:41:20.088Z,4.00
2022-11-18T06:43:41.974Z,4.10
2022-11-18T06:46:09.128Z,4.10
2022-11-18T06:48:11.745Z,4.20
2022-11-18T06:50:16.674Z,4.10
2022-11-18T06:52:20.127Z,4.20
2022-11-18T06:54:23.487Z,4.20
2022-11-18T06:56:27.125Z,4.20
2022-11-18T06:58:30.413Z,4.30
2022-11-18T07:00:33.734Z,4.30
2022-11-18T07:02:37.708Z,4.30
2022-11-18T07:04:41.612Z,4.40
2022-11-18T07:06:46.392Z,4.30
2022-11-18T07:08:50.238Z,4.40
2022-11-18T07:10:54.145Z,4.50
2022-11-18T07:12:57.328Z,4.50
2022-11-18T07:15:00.728Z,4.60
2022-11-18T07:17:04.157Z,4.60
2022-11-18T07:19:10.990Z,4.70
2022-11-18T07:21:16.549Z,4.80
2022-11-18T07:23:21.361Z,4.80
2022-11-18T07:25:24.594Z,4.80
2022-11-18T07:27:27.835Z,4.90
2022-11-18T07:29:31.064Z,5.00
2022-11-18T07:31:35.380Z,5.00
2022-11-18T07:33:39.405Z,5.10
2022-11-18T07:35:43.362Z,5.20
2022-11-18T07:37:46.743Z,5.30
2022-11-18T07:39:51.608Z,5.20
2022-11-18T07:41:54.857Z,5.40
2022-11-18T07:44:00.974Z,5.50
2022-11-18T07:46:12.405Z,5.50
2022-11-18T07:48:15.887Z,5.60
2022-11-18T07:50:19.997Z,5.60
2022-11-18T07:52:23.289Z,5.60
2022-11-18T07:54:26.682Z,5.60
2022-11-18T07:56:31.350Z,5.70
2022-11-18T07:58:35.531Z,5.60
2022-11-18T08:00:38.828Z,5.80
2022-11-18T08:02:43.734Z,5.70
2022-11-18T08:04:47.320Z,5.70
2022-11-18T08:06:50.570Z,5.70
2022-11-18T08:08:54.212Z,5.60
2022-11-18T08:10:58.223Z,5.70
2022-11-18T08:13:02.900Z,5.80
2022-11-18T08:15:09.577Z,5.70
2022-11-18T08:17:12.799Z,5.70
2022-11-18T08:19:16.605Z,5.70
2022-11-18T08:21:22.354Z,5.70
2022-11-18T08:23:31.764Z,5.60
2022-11-18T08:25:36.569Z,5.70
2022-11-18T08:27:40.128Z,5.80
2022-11-18T08:29:44.774Z,5.90
2022-11-18T08:31:48.032Z,5.90
2022-11-18T08:33:55.262Z,5.80
2022-11-18T08:35:58.446Z,5.80
2022-11-18T08:38:02.304Z,5.80
2022-11-18T08:40:06.472Z,5.70
2022-11-18T08:42:10.716Z,5.80
2022-11-18T08:44:16.462Z,5.90
2022-11-18T08:46:21.108Z,5.80
2022-11-18T08:48:25.110Z,5.80
2022-11-18T08:50:28.740Z,5.90
2022-11-18T08:52:32.084Z,5.90
2022-11-18T08:54:35.480Z,5.90
2022-11-18T08:56:39.271Z,5.90
2022-11-18T08:58:42.820Z,6.00
2022-11-18T09:00:46.100Z,6.00
2022-11-18T09:02:51.024Z,6.10
2022-11-18T09:04:54.736Z,6.10
2022-11-18T09:06:59.358Z,6.10
2022-11-18T09:09:06.323Z,6.10
2022-11-18T09:11:11.524Z,6.10
2022-11-18T09:15:38.036Z,6.10
2022-11-18T09:17:41.294Z,6.20
2022-11-18T09:19:48.023Z,6.20
2022-11-18T09:21:51.526Z,6.20
2022-11-18T09:23:55.219Z,6.20
2022-11-18T09:26:00.292Z,6.30
2022-11-18T09:28:03.542Z,6.40
2022-11-18T09:30:07.854Z,6.50
2022-11-18T09:32:11.180Z,6.50
2022-11-18T09:34:14.585Z,6.50
2022-11-18T09:36:21.632Z,6.50
2022-11-18T09:38:24.877Z,6.50
2022-11-18T09:40:28.918Z,6.60
2022-11-18T09:42:43.909Z,6.60
2022-11-18T09:45:00.687Z,6.70
2022-11-18T09:47:15.789Z,6.70
2022-11-18T09:49:27.743Z,6.80
2022-11-18T09:51:39.435Z,6.80
2022-11-18T09:53:45.593Z,6.70
2022-11-18T09:55:50.133Z,6.80
2022-11-18T09:57:55.786Z,6.80
2022-11-18T10:00:00.517Z,6.80
2022-11-18T10:02:15.904Z,6.80
2022-11-18T10:04:22.323Z,6.90
2022-11-18T10:06:27.765Z,6.80
2022-11-18T10:08:37.877Z,6.60
2022-11-18T10:10:49.533Z,6.60
2022-11-18T10:13:00.363Z,6.60
2022-11-18T10:15:20.748Z,6.70
2022-11-18T10:17:39.761Z,6.80
2022-11-18T10:19:52.133Z,6.80
2022-11-18T10:22:21.185Z,6.70
2022-11-18T10:24:34.695Z,6.80
2022-11-18T10:26:39.629Z,6.90
2022-11-18T10:28:43.200Z,7.00
2022-11-18T10:30:47.278Z,7.10
2022-11-18T10:32:58.580Z,7.20
2022-11-18T10:35:02.147Z,7.20
2022-11-18T10:37:07.094Z,7.20
2022-11-18T10:39:13.357Z,7.20
2022-11-18T10:41:22.161Z,7.30
2022-11-18T10:43:44.228Z,7.30
2022-11-18T10:45:47.557Z,7.40
2022-11-18T10:48:00.336Z,7.60
2022-11-18T10:50:24.449Z,7.50
2022-11-18T10:52:31.254Z,7.50
2022-11-18T10:54:34.947Z,7.50
2022-11-18T10:56:56.401Z,7.50
2022-11-18T10:59:01.261Z,7.40
2022-11-18T11:01:09.602Z,7.40
2022-11-18T11:03:35.471Z,7.40
2022-11-18T11:05:39.014Z,7.50
2022-11-18T11:07:42.813Z,7.40
2022-11-18T11:09:46.517Z,7.40
2022-11-18T11:12:00.112Z,7.50
2022-11-18T11:14:18.533Z,7.50
2022-11-18T11:16:26.253Z,7.70
2022-11-18T11:18:44.148Z,7.80
2022-11-18T11:20:47.707Z,7.90
2022-11-18T11:22:51.230Z,8.20
2022-11-18T11:24:54.493Z,8.10
2022-11-18T11:30:06.151Z,8.20
2022-11-18T11:32:20.749Z,8.50
2022-11-18T11:34:30.282Z,8.50
2022-11-18T11:36:41.233Z,8.60
2022-11-18T11:38:59.903Z,8.70
2022-11-18T11:41:12.329Z,8.80
2022-11-18T11:43:32.780Z,8.80
2022-11-18T11:45:45.000Z,8.80
2022-11-18T11:48:18.299Z,8.70
2022-11-18T11:50:29.084Z,8.90
2022-11-18T11:52:47.723Z,8.70
2022-11-18T11:54:59.805Z,8.60
2022-11-18T11:57:07.094Z,8.70
2022-11-18T11:59:30.839Z,8.80
2022-11-18T12:01:43.465Z,8.80
2022-11-18T12:03:52.246Z,8.80
2022-11-18T12:05:55.783Z,8.80
2022-11-18T12:08:01.530Z,8.90
2022-11-18T12:10:20.817Z,9.00
2022-11-18T12:12:36.087Z,9.10
2022-11-18T12:14:45.398Z,9.20
2022-11-18T12:16:54.036Z,9.20
2022-11-18T12:19:01.108Z,9.30
2022-11-18T12:21:04.563Z,9.40
2022-11-18T12:23:18.628Z,9.40
2022-11-18T12:25:55.198Z,9.40
2022-11-18T12:28:00.944Z,9.50
2022-11-18T12:30:06.402Z,9.70
2022-11-18T12:32:36.379Z,9.90
2022-11-18T12:34:41.949Z,10.30
2022-11-18T12:36:45.435Z,10.70
2022-11-18T12:38:48.888Z,11.40
2022-11-18T12:40:53.187Z,12.00
2022-11-18T12:43:14.411Z,12.60
2022-11-18T12:45:50.922Z,12.60
2022-11-18T12:48:00.006Z,12.20
2022-11-18T12:50:15.008Z,12.30
2022-11-18T12:52:52.700Z,12.50
2022-11-18T12:54:57.024Z,12.00
2022-11-18T12:57:03.987Z,11.80
2022-11-18T12:59:13.845Z,12.00
2022-11-18T13:01:21.363Z,11.80
2022-11-18T13:03:29.037Z,11.60
2022-11-18T13:05:35.882Z,11.30
2022-11-18T13:08:03.405Z,11.30
2022-11-18T13:10:22.643Z,11.20
2022-11-18T13:12:30.134Z,11.20
2022-11-18T13:14:53.182Z,10.90
2022-11-18T13:17:15.277Z,11.00
2022-11-18T13:19:23.278Z,10.80
2022-11-18T13:21:45.837Z,10.30
2022-11-18T13:24:00.428Z,10.20
2022-11-18T13:26:10.514Z,10.10
2022-11-18T13:28:24.905Z,9.90
2022-11-18T13:34:46.135Z,8.60
2022-11-18T13:36:51.503Z,8.70
2022-11-18T13:38:58.525Z,8.40
2022-11-18T18:07:20.155Z,5.90
2022-11-18T18:09:31.083Z,5.80
2022-11-18T18:11:36.175Z,5.70
2022-11-18T18:14:03.294Z,5.70
2022-11-18T18:16:06.903Z,5.60
2022-11-18T18:18:10.248Z,5.60
2022-11-18T18:20:13.432Z,5.50
2022-11-18T18:22:16.915Z,5.40
2022-11-18T18:24:21.154Z,5.30
2022-11-18T18:26:29.907Z,5.30
2022-11-18T18:28:36.623Z,5.20
2022-11-18T18:30:40.015Z,5.10
2022-11-18T18:32:45.919Z,5.00
2022-11-18T18:34:52.852Z,4.90
2022-11-18T18:36:56.136Z,4.90
2022-11-18T18:39:01.024Z,4.70
2022-11-18T18:41:06.590Z,4.70
2022-11-18T18:43:09.786Z,4.70
2022-11-18T18:45:31.916Z,4.80
2022-11-18T18:47:35.795Z,4.80
2022-11-18T18:49:39.304Z,4.70
2022-11-18T18:51:44.162Z,4.70
2022-11-18T18:53:47.420Z,4.70
2022-11-18T18:55:57.224Z,4.80
2022-11-18T18:58:00.449Z,5.00
2022-11-18T19:00:04.740Z,4.90
2022-11-18T19:02:11.706Z,4.90
2022-11-18T19:04:16.480Z,5.00
2022-11-18T19:08:47.414Z,5.00
2022-11-18T19:10:50.758Z,5.00
2022-11-18T19:12:53.144Z,5.00
2022-11-18T19:14:56.439Z,5.10
2022-11-18T19:17:04.857Z,5.10
2022-11-18T19:19:16.089Z,5.10
2022-11-18T19:21:18.587Z,5.30
2022-11-18T19:23:22.011Z,5.30
2022-11-18T19:25:25.167Z,5.40
2022-11-18T19:27:28.553Z,5.40
2022-11-18T19:29:32.188Z,5.50
2022-11-18T19:31:35.684Z,5.50
2022-11-18T19:33:39.019Z,5.50
2022-11-18T19:35:43.757Z,5.40
2022-11-18T19:37:47.364Z,5.40
2022-11-18T19:39:50.650Z,5.40
2022-11-18T19:41:53.821Z,5.50
2022-11-18T19:43:57.429Z,5.50
2022-11-18T19:46:00.680Z,5.40
2022-11-18T19:48:04.219Z,5.40
2022-11-18T19:50:08.493Z,5.40
2022-11-18T19:52:13.196Z,5.40
2022-11-18T19:54:16.443Z,5.30
2022-11-18T19:56:21.778Z,5.30
2022-11-18T19:58:25.505Z,5.30
2022-11-18T20:00:28.876Z,5.20
2022-11-18T20:02:32.223Z,5.30
2022-11-18T20:04:35.884Z,5.20
2022-11-18T20:06:40.177Z,5.40
2022-11-18T20:08:46.378Z,5.30
2022-11-18T20:10:50.219Z,5.30
2022-11-18T20:12:53.474Z,5.30
2022-11-18T20:14:56.920Z,5.20
2022-11-18T20:17:00.237Z,5.20
2022-11-18T20:19:18.346Z,5.20
2022-11-18T20:21:22.435Z,5.10
2022-11-18T20:23:25.819Z,5.20
2022-11-18T20:25:30.614Z,5.30
2022-11-18T20:27:33.923Z,5.30
2022-11-18T20:29:37.135Z,5.30
2022-11-18T20:31:40.494Z,5.30
2022-11-18T20:33:48.766Z,5.30
2022-11-18T20:35:52.051Z,5.30
2022-11-18T20:37:55.268Z,5.20
2022-11-18T20:39:58.632Z,5.20
2022-11-18T20:42:20.600Z,5.20
2022-11-18T20:44:23.869Z,5.30
2022-11-18T20:46:27.995Z,5.30
2022-11-18T20:48:32.680Z,5.30
2022-11-18T20:50:38.781Z,5.30
2022-11-18T20:52:42.065Z,5.30
2022-11-18T20:54:45.831Z,5.40
2022-11-18T20:56:49.119Z,5.40
2022-11-18T20:58:54.215Z,5.40
2022-11-18T21:01:01.600Z,5.50
2022-11-18T21:03:05.610Z,5.40
2022-11-18T21:05:09.705Z,5.40
2022-11-18T21:07:13.174Z,5.40
2022-11-18T21:09:17.230Z,5.40
2022-11-18T21:11:20.748Z,5.40
2022-11-18T21:13:41.657Z,5.40
2022-11-18T21:15:46.270Z,5.40
2022-11-18T21:17:50.892Z,5.40
2022-11-18T21:19:54.119Z,5.40
2022-11-18T21:21:57.163Z,5.30
2022-11-18T21:24:01.787Z,5.20
2022-11-18T21:26:10.449Z,5.20
2022-11-18T21:28:16.247Z,5.20
2022-11-18T21:30:20.332Z,5.20
2022-11-18T21:32:25.039Z,5.30
2022-11-18T21:34:28.679Z,5.20
2022-11-18T21:36:32.243Z,5.20
2022-11-18T21:38:35.407Z,5.20
2022-11-18T21:40:38.722Z,5.20
2022-11-18T21:42:41.955Z,5.20
2022-11-18T21:44:45.404Z,5.20
2022-11-18T21:46:51.362Z,5.20
2022-11-18T21:49:00.119Z,5.20
2022-11-18T21:51:05.671Z,5.20
2022-11-18T21:53:10.272Z,5.20
2022-11-18T21:55:13.800Z,5.30
2022-11-18T21:57:17.421Z,5.30
2022-11-18T21:59:22.500Z,5.30
2022-11-18T22:01:27.470Z,5.40
2022-11-18T22:03:30.708Z,5.40
2022-11-18T22:05:35.650Z,5.40
2022-11-18T22:07:39.169Z,5.50
2022-11-18T22:09:45.468Z,5.40
2022-11-18T22:11:48.992Z,5.50
2022-11-18T22:13:53.203Z,5.50
2022-11-18T22:16:03.493Z,5.40
2022-11-18T22:18:06.723Z,5.50
2022-11-18T22:20:12.442Z,5.50
2022-11-18T22:22:17.380Z,5.40
2022-11-18T22:24:20.865Z,5.40
2022-11-18T22:26:24.310Z,5.30
2022-11-18T22:28:27.770Z,5.30
2022-11-18T22:30:30.992Z,5.30
2022-11-18T22:32:41.904Z,5.40
2022-11-18T22:34:49.201Z,5.40
2022-11-18T22:36:55.003Z,5.40
2022-11-18T22:38:59.814Z,5.40
2022-11-18T22:41:03.355Z,5.40
2022-11-18T22:43:05.643Z,5.40
2022-11-18T22:45:10.092Z,5.40
2022-11-18T22:47:13.502Z,5.40
2022-11-18T22:49:17.117Z,5.40
2022-11-18T22:51:20.926Z,5.30
2022-11-18T22:53:24.134Z,5.30
2022-11-18T22:55:28.963Z,5.40
2022-11-18T22:57:35.283Z,5.40
2022-11-18T22:59:38.595Z,5.40
2022-11-18T23:01:41.768Z,5.30
2022-11-18T23:03:45.757Z,5.40
2022-11-18T23:05:49.088Z,5.50
2022-11-18T23:07:52.457Z,5.40
2022-11-18T23:09:55.758Z,5.30
2022-11-18T23:12:32.183Z,5.30
2022-11-18T23:14:35.365Z,5.30
2022-11-18T23:16:40.911Z,5.30
2022-11-18T23:18:46.233Z,5.30
2022-11-18T23:20:49.454Z,5.30
2022-11-18T23:22:53.600Z,5.30
2022-11-18T23:24:56.856Z,5.20
2022-11-18T23:27:01.456Z,5.20
2022-11-18T23:29:04.694Z,5.20
2022-11-18T23:31:09.352Z,5.20
2022-11-18T23:33:12.744Z,5.20
2022-11-18T23:35:16.048Z,5.20
2022-11-18T23:37:19.322Z,5.20
2022-11-18T23:39:22.757Z,5.20
2022-11-18T23:41:26.129Z,5.20
2022-11-18T23:43:31.362Z,5.20
2022-11-18T23:45:34.788Z,5.20
2022-11-18T23:47:41.262Z,5.10
2022-11-18T23:49:44.455Z,5.10
2022-11-18T23:51:47.699Z,5.20
2022-11-18T23:53:54.604Z,5.20
2022-11-18T23:55:58.783Z,5.20
2022-11-18T23:58:02.003Z,5.20
